Mauritius/Sir Seewoosagur Ramgoolam

Airport
ICAO code: 
FIMP
IATA Code: 
MRU
Summary
ICAO Region: 
AFI
Territory: 
Location: 
Plaine Magnein, Mauritius
Serving: 
Port Louis
Elevation: 
186 ft
Coordinates: 
Aerial View: 
20° 25' 48" S, 57° 40' 59.016" E
Metar
Observation
FIMP 281400Z 17013KT 9999 BKN018 22/13 Q1022
Station
Plaisance Mauritius
Date/Time
2022-06-28 14:00:00
Wind direction
170°
Wind speed
13 kts
Lowest cloud amount
broken clouds
Temperature
22°C
Dew point
13°C
Humidity
56%
QNH
1022 hPa
Weather condition
n/a

Sir Seewoosagur Ramgoolam International Airport, also known as Plaisance Airport or SSR Airport, is an international airport serving the island country of Mauritius. The airport is located at Plaine Magnien, near Plaisance and 48 km southeast of Port Louis, the capital of Mauritius.

Climatology

Tropical Savanna climate (Köppen climate classification Aw)

Runways

Designator Length Width Surface Rops
14/32 3370 45 ASP Yes/Yes
Airport map: 
Aerial View: 

Accidents and Serious Incidents at or in the vicinity of FIMP

SKYbrary Partners:

Safety knowledge contributed by: